Time;durP1;ratioP1;P1;durP2;ratioP2;P2;SDS_P1;SDS_P2;PMS_P1;PMS_P2;Temp;Humidity;BMP_temperature;BMP_pressure;BME280_temperature;BME280_humidity;BME280_pressure;Samples;Min_cycle;Max_cycle;Signal;HPM_P1;HPM_P2
2022/05/23 00:00:49;;;;;;;8.48;2.63;;;12.00;99.90;;;;;;5052660;28;20413;-73
2022/05/23 00:03:14;;;;;;;10.00;2.63;;;11.90;99.90;;;;;;5053316;28;20053;-73
2022/05/23 00:05:40;;;;;;;5.97;2.58;;;11.90;99.90;;;;;;5053142;28;20044;-73
2022/05/23 00:08:06;;;;;;;7.57;2.53;;;11.90;99.90;;;;;;5052704;28;20048;-73
2022/05/23 00:10:32;;;;;;;5.38;2.88;;;11.90;99.90;;;;;;5052737;28;20053;-74
2022/05/23 00:12:58;;;;;;;9.07;2.65;;;11.90;99.90;;;;;;5053211;28;20048;-73
2022/05/23 00:15:24;;;;;;;6.45;2.38;;;11.90;99.90;;;;;;5052824;28;20037;-73
2022/05/23 00:17:50;;;;;;;8.30;3.00;;;11.90;99.90;;;;;;5052987;28;20087;-73
2022/05/23 00:20:19;;;;;;;7.35;2.78;;;11.90;99.90;;;;;;5052837;28;20083;-73
2022/05/23 00:22:45;;;;;;;4.47;2.38;;;11.80;99.90;;;;;;5052987;28;20497;-73
2022/05/23 00:25:11;;;;;;;5.80;2.38;;;11.80;99.90;;;;;;5052813;28;20116;-73
2022/05/23 00:27:42;;;;;;;6.22;2.22;;;11.60;99.90;;;;;;5053206;28;20049;-73
2022/05/23 00:30:16;;;;;;;6.57;2.88;;;11.60;99.90;;;;;;5051628;28;20055;-73
2022/05/23 00:35:27;;;;;;;4.93;3.10;;;11.40;99.90;;;;;;5051704;28;20052;-73
2022/05/23 00:37:55;;;;;;;6.35;3.13;;;11.40;99.90;;;;;;5052933;28;20055;-73
2022/05/23 00:40:30;;;;;;;7.80;3.05;;;11.20;99.90;;;;;;5052703;28;20048;-73
2022/05/23 00:43:14;;;;;;;12.18;3.53;;;11.10;99.90;;;;;;5052758;28;20045;-73
2022/05/23 00:45:42;;;;;;;9.85;3.58;;;11.00;99.90;;;;;;5052374;28;20041;-73
2022/05/23 00:48:09;;;;;;;4.95;3.08;;;10.90;99.90;;;;;;5052694;28;20734;-73
2022/05/23 00:50:35;;;;;;;7.75;3.45;;;10.90;99.90;;;;;;5052447;28;20408;-73
2022/05/23 00:53:02;;;;;;;7.13;2.80;;;10.80;99.90;;;;;;5052521;28;20409;-73
2022/05/23 00:55:35;;;;;;;8.70;3.72;;;10.90;99.90;;;;;;5052402;28;20056;-73
2022/05/23 00:58:10;;;;;;;6.43;3.45;;;10.90;99.90;;;;;;5052644;28;20099;-73
2022/05/23 01:00:36;;;;;;;7.10;3.33;;;10.90;99.90;;;;;;5052112;28;20061;-73
2022/05/23 01:03:06;;;;;;;10.40;3.83;;;10.80;99.90;;;;;;5052657;28;20181;-73
2022/05/23 01:05:35;;;;;;;6.78;3.53;;;10.80;99.90;;;;;;5052406;28;20041;-73
2022/05/23 01:08:01;;;;;;;5.88;3.40;;;10.80;99.90;;;;;;5052609;28;20056;-73
2022/05/23 01:10:30;;;;;;;9.40;3.13;;;10.70;99.90;;;;;;5051236;28;20049;-73
2022/05/23 01:12:56;;;;;;;9.20;3.65;;;10.80;99.90;;;;;;5052204;28;20049;-73
2022/05/23 01:15:25;;;;;;;7.35;3.33;;;10.80;99.90;;;;;;5052132;28;20508;-73
2022/05/23 01:17:50;;;;;;;7.32;4.15;;;10.70;99.90;;;;;;5052480;28;20048;-73
2022/05/23 01:20:17;;;;;;;12.73;3.70;;;10.70;99.90;;;;;;5052632;28;20428;-73
2022/05/23 01:23:19;;;;;;;9.05;4.50;;;10.60;99.90;;;;;;5056253;28;20497;-73
2022/05/23 01:25:47;;;;;;;8.80;4.63;;;10.60;99.90;;;;;;5056041;28;20056;-73
2022/05/23 01:28:14;;;;;;;8.60;4.70;;;10.40;99.90;;;;;;5056215;28;20056;-73
2022/05/23 01:30:41;;;;;;;8.55;4.22;;;10.40;99.90;;;;;;5055560;28;20110;-73
2022/05/23 01:33:09;;;;;;;9.43;4.45;;;10.30;99.90;;;;;;5055927;28;20084;-73
2022/05/23 01:35:35;;;;;;;8.50;4.93;;;10.30;99.90;;;;;;5055719;28;20099;-73
2022/05/23 01:38:01;;;;;;;9.77;3.92;;;10.30;99.90;;;;;;5055773;28;20051;-73
2022/05/23 01:40:27;;;;;;;9.07;4.07;;;10.40;99.90;;;;;;5055709;28;20136;-73
2022/05/23 01:42:53;;;;;;;10.18;4.25;;;10.40;99.90;;;;;;5055770;28;20045;-73
2022/05/23 01:45:26;;;;;;;8.15;3.83;;;10.40;99.90;;;;;;5055707;28;20048;-72
2022/05/23 01:47:53;;;;;;;11.48;4.88;;;10.40;99.90;;;;;;5055844;28;20485;-73
2022/05/23 01:50:20;;;;;;;7.20;4.05;;;10.40;99.90;;;;;;5055385;28;20102;-73
2022/05/23 01:52:46;;;;;;;13.60;4.88;;;10.40;99.90;;;;;;5055664;28;20047;-73
2022/05/23 01:55:11;;;;;;;10.30;4.28;;;10.40;99.90;;;;;;5055577;28;20049;-73
2022/05/23 01:57:37;;;;;;;10.45;4.70;;;10.40;99.90;;;;;;5054408;28;20084;-73
2022/05/23 02:02:50;;;;;;;8.30;5.13;;;10.40;99.90;;;;;;5055140;28;20053;-73
2022/05/23 02:05:16;;;;;;;8.43;5.47;;;10.50;99.90;;;;;;5055582;28;20116;-73
2022/05/23 02:07:42;;;;;;;8.23;4.78;;;10.60;99.90;;;;;;5055576;28;20064;-72
2022/05/23 02:10:09;;;;;;;8.20;4.80;;;10.70;99.90;;;;;;5054843;28;20041;-73
2022/05/23 02:12:35;;;;;;;10.30;4.97;;;10.80;99.90;;;;;;5055423;28;20440;-73
2022/05/23 02:15:01;;;;;;;8.32;5.80;;;10.90;99.90;;;;;;5055214;28;20243;-73
2022/05/23 02:17:27;;;;;;;8.77;4.57;;;11.00;99.90;;;;;;5055429;28;20116;-74
2022/05/23 02:19:53;;;;;;;7.82;4.45;;;11.00;99.90;;;;;;5055114;28;20037;-72
2022/05/23 02:22:19;;;;;;;11.02;5.03;;;11.00;99.90;;;;;;5055111;28;20059;-72
2022/05/23 02:24:44;;;;;;;7.88;4.63;;;11.10;99.90;;;;;;5054904;28;20045;-72
2022/05/23 02:27:10;;;;;;;10.65;5.05;;;11.20;99.90;;;;;;5054870;28;20120;-73
2022/05/23 02:29:36;;;;;;;7.90;4.88;;;11.20;99.90;;;;;;5054760;28;20045;-73
2022/05/23 02:32:02;;;;;;;7.70;4.10;;;11.30;99.90;;;;;;5054125;28;20041;-72
2022/05/23 02:34:27;;;;;;;9.38;4.63;;;11.30;99.90;;;;;;5054978;28;20106;-74
2022/05/23 02:36:53;;;;;;;9.77;5.07;;;11.30;99.90;;;;;;5053948;28;20481;-72
2022/05/23 02:39:19;;;;;;;13.35;4.70;;;11.30;99.90;;;;;;5053166;28;20108;-72
2022/05/23 02:41:45;;;;;;;10.82;4.65;;;11.40;99.90;;;;;;5054590;28;20503;-73
2022/05/23 02:44:11;;;;;;;10.88;5.63;;;11.30;99.90;;;;;;5054330;28;20044;-72
2022/05/23 02:46:36;;;;;;;8.50;5.22;;;11.30;99.90;;;;;;5054387;28;20079;-73
2022/05/23 02:49:02;;;;;;;11.40;5.72;;;11.30;99.90;;;;;;5054319;28;20068;-72
2022/05/23 02:51:28;;;;;;;11.35;5.45;;;11.20;99.90;;;;;;5054651;28;20063;-72
2022/05/23 02:53:53;;;;;;;7.88;5.22;;;11.30;99.90;;;;;;5054632;28;20409;-73
2022/05/23 02:56:19;;;;;;;14.35;5.85;;;11.20;99.90;;;;;;5054242;28;20041;-72
2022/05/23 02:58:44;;;;;;;9.95;5.20;;;11.30;99.90;;;;;;5054341;28;20045;-73
2022/05/23 03:01:11;;;;;;;9.65;5.70;;;11.20;99.90;;;;;;5053362;28;20049;-72
2022/05/23 03:03:37;;;;;;;7.75;5.40;;;11.20;99.90;;;;;;5054449;28;20519;-73
2022/05/23 03:06:04;;;;;;;9.65;5.07;;;11.20;99.90;;;;;;5054006;28;20037;-72
2022/05/23 03:08:30;;;;;;;17.63;6.13;;;11.20;99.90;;;;;;5054307;28;20039;-72
2022/05/23 03:10:59;;;;;;;10.60;5.15;;;11.20;99.90;;;;;;5053305;28;20045;-72
2022/05/23 03:13:25;;;;;;;9.05;5.20;;;11.20;99.90;;;;;;5052875;28;20037;-72
2022/05/23 03:15:51;;;;;;;8.65;5.78;;;11.20;99.90;;;;;;5052588;28;20048;-72
2022/05/23 03:18:17;;;;;;;8.77;5.60;;;11.20;99.90;;;;;;5053969;28;20033;-72
2022/05/23 03:20:43;;;;;;;9.73;5.60;;;11.20;99.90;;;;;;5053657;28;20555;-73
2022/05/23 03:28:39;;;;;;;9.73;5.90;;;11.10;99.90;;;;;;5053532;28;20111;-73
2022/05/23 03:31:05;;;;;;;8.90;6.07;;;11.10;99.90;;;;;;5052583;28;20524;-72
2022/05/23 03:33:31;;;;;;;12.30;5.90;;;11.20;99.90;;;;;;5053063;28;20147;-73
2022/05/23 03:35:57;;;;;;;14.93;6.40;;;11.10;99.90;;;;;;5053517;28;20045;-73
2022/05/23 03:38:22;;;;;;;9.57;5.65;;;11.20;99.90;;;;;;5053468;28;20036;-73
2022/05/23 03:40:48;;;;;;;10.40;6.65;;;11.20;99.90;;;;;;5053028;28;20040;-72
2022/05/23 03:43:14;;;;;;;10.30;5.68;;;11.20;99.90;;;;;;5053040;28;20123;-73
2022/05/23 03:45:40;;;;;;;10.43;5.85;;;11.20;99.90;;;;;;5053275;28;20045;-73
2022/05/23 03:48:06;;;;;;;9.80;6.13;;;11.20;99.90;;;;;;5053061;28;20125;-73
2022/05/23 03:50:33;;;;;;;8.88;5.53;;;11.20;99.90;;;;;;5053086;28;20041;-73
2022/05/23 03:53:00;;;;;;;8.25;6.50;;;11.20;99.90;;;;;;5052960;28;20102;-73
2022/05/23 03:55:26;;;;;;;10.45;6.05;;;11.20;99.90;;;;;;5052978;28;20051;-73
2022/05/23 03:57:52;;;;;;;10.77;6.50;;;11.20;99.90;;;;;;5051314;28;20044;-73
2022/05/23 04:00:18;;;;;;;11.63;6.90;;;11.20;99.90;;;;;;5052718;28;20048;-72
2022/05/23 04:02:44;;;;;;;14.25;7.05;;;11.30;99.90;;;;;;5053112;28;20052;-73
2022/05/23 04:05:12;;;;;;;7.15;5.68;;;11.20;99.90;;;;;;5053497;28;20555;-73
2022/05/23 04:07:39;;;;;;;9.70;5.60;;;11.30;99.90;;;;;;5053030;28;20493;-74
2022/05/23 04:10:07;;;;;;;13.40;6.90;;;11.20;99.90;;;;;;5052591;28;20427;-73
2022/05/23 04:12:33;;;;;;;9.35;6.10;;;11.20;99.90;;;;;;5052820;28;20045;-73
2022/05/23 04:14:58;;;;;;;8.90;5.82;;;11.20;99.90;;;;;;5052093;28;20044;-72
2022/05/23 04:17:24;;;;;;;10.02;6.10;;;11.10;99.90;;;;;;5052325;28;20094;-72
2022/05/23 04:19:50;;;;;;;8.43;6.18;;;11.20;99.90;;;;;;5051972;28;20083;-72
2022/05/23 04:22:15;;;;;;;11.90;6.38;;;11.20;99.90;;;;;;5052271;28;20048;-72
2022/05/23 04:24:42;;;;;;;17.52;7.13;;;11.20;99.90;;;;;;5052413;28;20044;-72
2022/05/23 04:27:07;;;;;;;13.82;6.30;;;11.30;99.90;;;;;;5052039;28;20120;-72
2022/05/23 04:29:33;;;;;;;12.07;5.57;;;11.30;99.90;;;;;;5052002;28;20080;-73
2022/05/23 04:31:59;;;;;;;9.50;7.20;;;11.40;99.90;;;;;;5035232;28;20402;-74
2022/05/23 04:37:08;;;;;;;10.63;6.30;;;11.40;99.90;;;;;;5050491;28;20107;-73
2022/05/23 04:39:34;;;;;;;8.80;5.13;;;11.50;99.90;;;;;;5051383;28;20076;-73
2022/05/23 04:42:00;;;;;;;8.45;5.50;;;11.50;99.90;;;;;;5051614;28;20091;-73
2022/05/23 04:44:26;;;;;;;7.45;5.47;;;11.60;99.90;;;;;;5051727;28;20049;-73
2022/05/23 04:49:42;;;;;;;10.15;5.70;;;11.60;99.90;;;;;;5032973;28;20088;-73
2022/05/23 04:52:13;;;;;;;10.07;5.70;;;11.60;99.90;;;;;;5050992;28;20045;-73
2022/05/23 04:54:39;;;;;;;10.43;5.78;;;11.60;99.90;;;;;;5052090;28;20401;-73
2022/05/23 04:57:06;;;;;;;10.50;6.47;;;11.60;99.90;;;;;;5052209;28;20044;-73
2022/05/23 04:59:33;;;;;;;11.68;6.25;;;11.80;99.90;;;;;;5052334;28;20041;-73
2022/05/23 05:02:01;;;;;;;10.52;5.68;;;12.10;99.90;;;;;;5051112;28;20080;-74
2022/05/23 05:04:27;;;;;;;12.75;5.45;;;12.40;99.90;;;;;;5053210;28;20041;-73
2022/05/23 05:06:53;;;;;;;9.75;4.90;;;12.50;99.90;;;;;;5052804;28;20401;-73
2022/05/23 05:09:18;;;;;;;7.72;4.47;;;12.70;99.90;;;;;;5052716;28;20057;-74
2022/05/23 05:11:44;;;;;;;10.43;4.32;;;13.10;99.90;;;;;;5052387;28;20497;-73
2022/05/23 05:14:10;;;;;;;8.00;4.40;;;13.50;99.90;;;;;;5052463;28;20048;-74
2022/05/23 05:16:36;;;;;;;11.45;4.35;;;13.90;99.90;;;;;;5052035;28;20077;-74
2022/05/23 05:19:02;;;;;;;6.72;3.90;;;14.10;99.90;;;;;;5052344;28;20113;-74
2022/05/23 05:21:29;;;;;;;9.75;4.53;;;14.50;99.90;;;;;;5052270;28;20056;-73
2022/05/23 05:23:55;;;;;;;9.50;3.85;;;14.50;99.90;;;;;;5053238;28;20409;-74
2022/05/23 05:26:20;;;;;;;5.68;3.75;;;14.50;99.90;;;;;;5054996;28;20070;-73
2022/05/23 05:28:46;;;;;;;7.63;3.78;;;14.20;99.90;;;;;;5055255;28;20502;-74
2022/05/23 05:31:23;;;;;;;6.82;3.80;;;14.30;99.90;;;;;;5055051;28;20702;-73
2022/05/23 05:33:55;;;;;;;7.55;3.38;;;14.50;99.90;;;;;;5055403;28;20044;-73
2022/05/23 05:36:26;;;;;;;11.05;4.10;;;14.50;99.90;;;;;;5055140;28;20405;-73
2022/05/23 05:39:02;;;;;;;7.63;3.88;;;14.40;99.90;;;;;;5055186;28;20037;-73
2022/05/23 05:41:32;;;;;;;9.55;4.13;;;14.60;99.90;;;;;;5055179;28;20056;-74
2022/05/23 05:44:05;;;;;;;6.72;3.75;;;15.10;99.90;;;;;;5055233;28;20057;-74
2022/05/23 05:46:38;;;;;;;12.10;4.03;;;15.60;99.90;;;;;;5055063;28;20045;-74
2022/05/23 05:49:09;;;;;;;6.15;3.25;;;15.80;99.90;;;;;;5055232;28;20044;-74
2022/05/23 05:51:37;;;;;;;9.15;3.50;;;16.40;99.90;;;;;;5053741;28;20055;-74
2022/05/23 05:54:06;;;;;;;11.23;3.92;;;17.00;99.90;;;;;;5054845;28;20509;-74
2022/05/23 05:56:32;;;;;;;7.28;4.22;;;17.10;99.30;;;;;;5054940;28;20041;-73
2022/05/23 05:58:58;;;;;;;9.63;3.28;;;16.90;91.60;;;;;;5055006;28;20041;-74
2022/05/23 06:01:24;;;;;;;7.28;3.58;;;16.80;92.10;;;;;;5054501;28;20053;-74
2022/05/23 06:03:50;;;;;;;6.80;3.35;;;16.30;94.50;;;;;;5054798;28;20110;-73
2022/05/23 06:11:47;;;;;;;6.13;3.17;;;16.30;92.70;;;;;;5054574;28;20053;-74
2022/05/23 06:14:13;;;;;;;7.32;3.67;;;16.30;92.00;;;;;;5054592;28;20045;-74
2022/05/23 06:16:39;;;;;;;11.10;3.70;;;16.90;89.20;;;;;;5054468;28;20072;-74
2022/05/23 06:19:05;;;;;;;6.93;3.15;;;17.00;79.80;;;;;;5054245;28;20040;-75
2022/05/23 06:21:31;;;;;;;7.35;3.50;;;17.50;79.80;;;;;;5054391;28;20102;-74
2022/05/23 06:23:57;;;;;;;7.63;3.58;;;18.00;75.10;;;;;;5054406;28;20052;-74
2022/05/23 06:26:26;;;;;;;8.98;3.38;;;18.70;63.60;;;;;;5054349;28;20124;-74
2022/05/23 06:28:52;;;;;;;7.45;2.97;;;18.80;58.70;;;;;;5054358;28;20098;-74
2022/05/23 06:31:19;;;;;;;5.60;2.92;;;19.40;56.00;;;;;;5054257;28;20056;-74
2022/05/23 06:33:45;;;;;;;8.43;3.10;;;20.00;49.70;;;;;;5054250;28;20063;-74
2022/05/23 06:36:12;;;;;;;9.82;3.88;;;20.00;47.50;;;;;;5054117;28;20477;-73
2022/05/23 06:38:39;;;;;;;6.43;3.15;;;19.80;43.50;;;;;;5054184;28;20068;-74
2022/05/23 06:41:06;;;;;;;8.65;3.40;;;19.60;46.80;;;;;;5053789;28;20098;-74
2022/05/23 06:43:36;;;;;;;8.20;3.05;;;19.30;50.40;;;;;;5054244;28;20079;-74
2022/05/23 06:46:02;;;;;;;9.35;3.20;;;18.90;52.50;;;;;;5053690;28;20049;-74
2022/05/23 06:48:28;;;;;;;8.52;3.53;;;18.80;57.40;;;;;;5053961;28;20496;-74
2022/05/23 06:50:54;;;;;;;8.55;3.28;;;18.50;58.40;;;;;;5054012;28;20037;-74
2022/05/23 06:53:22;;;;;;;8.15;3.80;;;18.40;61.50;;;;;;5053593;28;20037;-74
2022/05/23 06:55:49;;;;;;;8.05;3.80;;;18.50;60.20;;;;;;5053161;28;20087;-74
2022/05/23 06:58:15;;;;;;;6.53;3.17;;;18.40;61.60;;;;;;5053211;28;20033;-73
2022/05/23 07:00:42;;;;;;;7.97;3.38;;;18.40;62.00;;;;;;5053030;28;20045;-74
2022/05/23 07:03:08;;;;;;;6.93;3.63;;;18.80;60.40;;;;;;5053358;28;20047;-73
2022/05/23 07:13:53;;;;;;;7.97;3.70;;;20.70;51.20;;;;;;5053636;28;20127;-74
2022/05/23 07:16:18;;;;;;;6.93;4.18;;;19.70;44.60;;;;;;5053354;28;20065;-74
2022/05/23 07:18:45;;;;;;;12.90;4.45;;;19.80;41.30;;;;;;5051101;28;20049;-74
2022/05/23 07:21:10;;;;;;;8.35;4.13;;;20.00;41.80;;;;;;5053240;28;20049;-73
2022/05/23 07:23:37;;;;;;;7.75;3.25;;;20.20;40.30;;;;;;5053231;28;20079;-75
2022/05/23 07:26:04;;;;;;;7.03;3.50;;;20.70;44.10;;;;;;5053093;28;20040;-74
2022/05/23 07:28:30;;;;;;;8.25;3.70;;;20.60;36.70;;;;;;5053286;28;20048;-74
2022/05/23 07:30:55;;;;;;;10.18;4.35;;;20.70;34.10;;;;;;5052997;28;20048;-74
2022/05/23 07:33:21;;;;;;;10.10;3.45;;;20.80;34.40;;;;;;5053052;28;20132;-74
2022/05/23 07:35:55;;;;;;;7.10;3.60;;;21.40;30.00;;;;;;5053048;28;20148;-74
2022/05/23 07:38:21;;;;;;;6.43;3.10;;;22.20;22.80;;;;;;5052837;28;20432;-75
2022/05/23 07:40:53;;;;;;;7.90;3.67;;;22.40;18.80;;;;;;5052951;28;20040;-74
2022/05/23 07:43:20;;;;;;;6.35;4.05;;;22.60;13.30;;;;;;5052951;28;20037;-75
2022/05/23 07:45:49;;;;;;;8.85;4.20;;;22.90;17.10;;;;;;5052694;28;20090;-74
2022/05/23 07:48:14;;;;;;;7.57;3.75;;;23.20;8.80;;;;;;5052189;28;20084;-74
2022/05/23 07:50:43;;;;;;;8.15;3.65;;;23.00;7.90;;;;;;5049431;28;20474;-75
2022/05/23 08:01:22;;;;;;;7.15;3.58;;;23.20;3.50;;;;;;5049026;28;20057;-75
2022/05/23 08:03:47;;;;;;;9.00;3.38;;;23.00;5.90;;;;;;5048049;28;20057;-75
2022/05/23 08:06:13;;;;;;;8.88;3.78;;;23.60;9.50;;;;;;5049490;28;20037;-74
2022/05/23 08:08:39;;;;;;;9.05;3.22;;;24.30;1.00;;;;;;5049497;28;20060;-74
2022/05/23 08:11:08;;;;;;;9.27;3.92;;;24.80;1.00;;;;;;5049110;28;20045;-75
2022/05/23 08:13:39;;;;;;;6.57;3.65;;;24.30;1.00;;;;;;5049305;28;20045;-75
2022/05/23 08:16:05;;;;;;;9.10;4.03;;;23.70;1.00;;;;;;5049361;28;20044;-75
2022/05/23 08:18:31;;;;;;;10.85;4.20;;;24.00;1.00;;;;;;5048845;28;20489;-75
2022/05/23 08:20:57;;;;;;;7.18;3.42;;;24.80;1.00;;;;;;5047897;28;20148;-74
2022/05/23 08:23:23;;;;;;;6.93;3.70;;;25.00;1.00;;;;;;5049075;28;20080;-75
2022/05/23 08:25:48;;;;;;;8.40;3.45;;;25.50;1.00;;;;;;5049118;28;20129;-75
2022/05/23 08:28:14;;;;;;;7.47;4.05;;;24.30;1.00;;;;;;5049144;28;20075;-74
2022/05/23 08:30:40;;;;;;;9.25;3.60;;;24.80;1.00;;;;;;5048614;28;20037;-75
2022/05/23 08:33:06;;;;;;;7.18;3.10;;;25.70;1.00;;;;;;5049019;28;20059;-75
2022/05/23 08:35:31;;;;;;;8.07;3.45;;;26.10;1.00;;;;;;5049373;28;20041;-75
2022/05/23 08:37:58;;;;;;;8.38;3.80;;;24.70;1.00;;;;;;5049589;28;20401;-75
2022/05/23 08:40:48;;;;;;;7.20;4.22;;;24.60;1.00;;;;;;5049509;28;20135;-74
2022/05/23 08:43:27;;;;;;;8.50;3.58;;;25.50;1.00;;;;;;5049662;28;20049;-75
2022/05/23 08:45:56;;;;;;;8.15;3.35;;;27.20;1.00;;;;;;5050055;28;20405;-75
2022/05/23 08:48:42;;;;;;;8.38;3.20;;;27.90;1.00;;;;;;5049451;28;20052;-74
2022/05/23 08:51:18;;;;;;;7.70;3.55;;;27.60;1.00;;;;;;5050150;28;20071;-73
2022/05/23 08:53:51;;;;;;;8.98;2.95;;;27.10;1.00;;;;;;5050313;28;20080;-73
2022/05/23 08:59:03;;;;;;;;;;;26.80;1.00;;;;;;5236049;23;20097;-87
2022/05/23 09:01:58;;;;;;;9.25;3.42;;;26.30;1.00;;;;;;5067534;28;19921;-87
2022/05/23 09:04:54;;;;;;;5.63;2.38;;;26.70;1.00;;;;;;5041558;28;20052;-87
2022/05/23 09:07:31;;;;;;;9.23;3.33;;;26.80;1.00;;;;;;5065630;28;20049;-87
2022/05/23 09:10:01;;;;;;;9.23;3.35;;;27.40;1.00;;;;;;5073631;28;20045;-87
2022/05/23 09:12:27;;;;;;;8.27;2.60;;;27.20;1.00;;;;;;5067461;28;20137;-87
2022/05/23 09:14:52;;;;;;;6.38;2.78;;;27.20;1.00;;;;;;5068214;28;20057;-87
2022/05/23 09:17:30;;;;;;;9.45;3.30;;;26.40;1.00;;;;;;5053345;28;20022;-87
2022/05/23 09:20:26;;;;;;;7.65;3.35;;;25.70;1.00;;;;;;5053038;28;20037;-87
2022/05/23 09:22:57;;;;;;;7.82;3.05;;;25.20;1.00;;;;;;5047425;28;20049;-87
2022/05/23 09:25:28;;;;;;;6.30;3.40;;;25.90;1.00;;;;;;5051151;28;20042;-87
2022/05/23 09:28:29;;;;;;;8.95;3.65;;;26.40;1.00;;;;;;5070241;28;20038;-87
2022/05/23 09:31:05;;;;;;;7.65;3.10;;;26.20;1.00;;;;;;5040570;28;20045;-87
2022/05/23 09:33:31;;;;;;;8.20;3.15;;;26.90;1.00;;;;;;5054475;28;20073;-88
2022/05/23 09:36:39;;;;;;;6.75;2.95;;;27.30;1.00;;;;;;5050543;28;20359;-87
2022/05/23 09:39:10;;;;;;;6.88;3.20;;;27.00;1.00;;;;;;5044720;28;20068;-88
2022/05/23 09:49:56;;;;;;;6.50;2.65;;;26.90;1.00;;;;;;5054897;28;20068;-88
2022/05/23 09:52:39;;;;;;;8.50;2.70;;;26.60;1.00;;;;;;5055185;28;20049;-88
2022/05/23 09:55:16;;;;;;;4.88;2.33;;;26.40;1.00;;;;;;5055474;28;20093;-88
2022/05/23 09:57:51;;;;;;;5.47;2.42;;;26.80;1.00;;;;;;5055898;28;20034;-89
2022/05/23 10:00:23;;;;;;;6.00;2.42;;;26.70;1.00;;;;;;5056595;28;20046;-88
2022/05/23 10:03:00;;;;;;;5.95;1.95;;;26.90;1.00;;;;;;5056457;28;20037;-88
2022/05/23 10:05:26;;;;;;;5.13;1.95;;;26.40;1.00;;;;;;5056528;28;20045;-89
2022/05/23 10:07:55;;;;;;;6.57;2.58;;;26.70;1.00;;;;;;5055633;28;20112;-89
2022/05/23 10:10:22;;;;;;;5.47;2.28;;;27.50;1.00;;;;;;5040362;28;20029;-89
2022/05/23 10:12:48;;;;;;;7.40;1.85;;;27.50;1.00;;;;;;5059729;28;20032;-89
2022/05/23 10:15:20;;;;;;;4.25;2.22;;;27.20;1.00;;;;;;5059213;28;20029;-88
2022/05/23 10:18:05;;;;;;;5.13;2.08;;;26.80;1.00;;;;;;5056950;28;20125;-89
2022/05/23 10:20:42;;;;;;;4.55;2.17;;;27.00;1.00;;;;;;5056415;28;20048;-89
2022/05/23 10:23:21;;;;;;;4.43;1.90;;;26.80;1.00;;;;;;5056339;28;20025;-89
2022/05/23 10:26:03;;;;;;;5.82;1.73;;;26.40;1.00;;;;;;5055066;28;20434;-88
2022/05/23 10:28:44;;;;;;;4.78;1.80;;;26.30;1.00;;;;;;5054197;28;20114;-88
2022/05/23 10:31:34;;;;;;;5.45;1.98;;;26.40;1.00;;;;;;5055503;28;20045;-89
2022/05/23 10:34:06;;;;;;;3.47;1.40;;;26.50;1.00;;;;;;5044917;28;20125;-89
2022/05/23 10:36:32;;;;;;;4.78;1.52;;;27.50;1.00;;;;;;5056034;28;20064;-89
2022/05/23 10:42:31;;;;;;;4.60;1.60;;;27.60;1.00;;;;;;5056146;28;20052;-89
2022/05/23 10:45:44;;;;;;;3.58;1.58;;;27.10;1.00;;;;;;5055476;28;20045;-89
2022/05/23 10:48:27;;;;;;;5.80;2.30;;;27.40;1.00;;;;;;5055911;28;20044;-89
2022/05/23 10:51:15;;;;;;;5.82;1.90;;;27.90;1.00;;;;;;5056872;28;20426;-89
2022/05/23 10:53:57;;;;;;;5.70;2.00;;;27.60;1.00;;;;;;5054750;28;20034;-88
2022/05/23 10:56:53;;;;;;;6.60;2.10;;;27.50;1.00;;;;;;5057104;28;20026;-90
2022/05/23 11:00:02;;;;;;;5.80;1.98;;;27.20;1.00;;;;;;5057432;28;20037;-90
2022/05/23 11:03:05;;;;;;;6.85;3.45;;;27.60;1.00;;;;;;5050043;28;20030;-90
2022/05/23 11:06:04;;;;;;;4.90;1.70;;;27.80;1.00;;;;;;5073845;28;20076;-90
2022/05/23 11:08:53;;;;;;;5.60;1.67;;;27.40;1.00;;;;;;5055606;28;20044;-90
2022/05/23 11:11:56;;;;;;;5.75;2.15;;;27.20;1.00;;;;;;5054081;28;20033;-88
2022/05/23 11:14:59;;;;;;;5.97;1.77;;;28.00;1.00;;;;;;5051290;28;20080;-88
2022/05/23 11:17:37;;;;;;;7.50;1.80;;;28.00;1.00;;;;;;5050730;28;20045;-88
2022/05/23 11:20:16;;;;;;;6.32;1.88;;;27.80;1.00;;;;;;5050997;28;20076;-88
2022/05/23 11:22:58;;;;;;;6.20;2.05;;;28.30;1.00;;;;;;5053014;28;20045;-88
2022/05/23 11:25:29;;;;;;;4.97;1.92;;;27.70;1.00;;;;;;5070432;28;20072;-88
2022/05/23 11:34:09;;;;;;;5.15;1.55;;;27.80;1.00;;;;;;5053545;28;20049;-88
2022/05/23 11:36:57;;;;;;;6.35;1.75;;;28.90;1.00;;;;;;5052538;28;20049;-88
2022/05/23 11:39:44;;;;;;;4.15;1.70;;;29.20;1.00;;;;;;5050860;28;20045;-88
2022/05/23 11:42:14;;;;;;;4.72;1.55;;;29.10;1.00;;;;;;5068667;28;20030;-88
2022/05/23 11:44:42;;;;;;;6.05;2.22;;;29.00;1.00;;;;;;5052965;28;20069;-88
2022/05/23 11:47:26;;;;;;;10.80;1.95;;;28.70;1.00;;;;;;5051965;28;20076;-88
2022/05/23 11:50:13;;;;;;;4.78;1.50;;;29.30;1.00;;;;;;5052784;28;20060;-88
2022/05/23 11:53:02;;;;;;;5.07;1.20;;;29.20;1.00;;;;;;5052789;28;20100;-88
2022/05/23 11:55:50;;;;;;;3.60;1.88;;;28.90;1.00;;;;;;5052634;28;20037;-88
2022/05/23 11:58:40;;;;;;;2.83;1.10;;;29.10;1.00;;;;;;5033971;28;20064;-89
2022/05/23 12:01:10;;;;;;;4.65;1.90;;;29.60;1.00;;;;;;5051839;28;20041;-89
2022/05/23 12:03:50;;;;;;;7.75;1.95;;;29.30;1.00;;;;;;5068592;28;20096;-89
2022/05/23 12:06:22;;;;;;;6.70;1.77;;;28.90;1.00;;;;;;5068866;28;20103;-88
2022/05/23 12:09:13;;;;;;;4.07;1.80;;;28.90;1.00;;;;;;5068436;28;20196;-88
2022/05/23 12:11:42;;;;;;;5.03;1.52;;;29.50;1.00;;;;;;5066280;28;20079;-88
2022/05/23 12:14:37;;;;;;;2.90;1.55;;;29.70;1.00;;;;;;5051865;28;20041;-87
2022/05/23 12:17:20;;;;;;;9.20;2.17;;;28.80;1.00;;;;;;5030782;28;20045;-89
2022/05/23 12:19:53;;;;;;;4.25;1.75;;;28.60;1.00;;;;;;5056341;28;20041;-88
2022/05/23 12:22:24;;;;;;;6.05;1.60;;;28.00;1.00;;;;;;5046153;28;20041;-88
2022/05/23 12:25:08;;;;;;;3.80;1.90;;;28.00;1.00;;;;;;5048572;28;20037;-89
2022/05/23 12:27:44;;;;;;;6.57;2.05;;;28.10;1.00;;;;;;5034840;28;20069;-89
2022/05/23 12:30:20;;;;;;;5.10;2.00;;;28.10;1.00;;;;;;5047653;28;20045;-89
2022/05/23 12:32:58;;;;;;;6.30;1.52;;;30.10;1.00;;;;;;5047505;28;20053;-88
2022/05/23 12:35:44;;;;;;;6.57;2.00;;;29.70;1.00;;;;;;5031519;28;20041;-89
2022/05/23 12:38:30;;;;;;;5.07;1.65;;;29.50;1.00;;;;;;5054528;28;20084;-89
2022/05/23 12:41:23;;;;;;;4.63;2.25;;;28.90;1.00;;;;;;5055399;28;20073;-89
2022/05/23 12:44:00;;;;;;;8.77;2.08;;;28.70;1.00;;;;;;5037912;28;20030;-88
2022/05/23 12:46:55;;;;;;;4.38;2.08;;;28.50;1.00;;;;;;5064563;28;20041;-88
2022/05/23 12:49:39;;;;;;;5.30;2.00;;;27.70;1.00;;;;;;5028231;28;20090;-88
2022/05/23 12:52:14;;;;;;;6.88;2.25;;;26.80;1.00;;;;;;5058866;28;20049;-88
2022/05/23 12:55:20;;;;;;;5.70;2.00;;;26.70;1.00;;;;;;5057945;28;20076;-89
2022/05/23 12:57:57;;;;;;;5.47;1.92;;;26.30;1.00;;;;;;5044929;28;20045;-88
2022/05/23 13:00:31;;;;;;;4.65;1.77;;;26.40;1.00;;;;;;5045434;28;20057;-88
2022/05/23 13:03:10;;;;;;;5.00;1.80;;;26.60;1.00;;;;;;5048009;28;20042;-88
2022/05/23 13:05:43;;;;;;;4.60;1.48;;;27.00;1.00;;;;;;5062129;28;20041;-88
2022/05/23 13:08:42;;;;;;;3.22;1.35;;;27.10;1.00;;;;;;5046300;28;20053;-88
2022/05/23 13:11:19;;;;;;;8.35;1.67;;;27.00;1.00;;;;;;5045847;28;20394;-88
2022/05/23 13:13:49;;;;;;;3.90;1.70;;;27.00;1.00;;;;;;5047218;28;20049;-88
2022/05/23 13:16:25;;;;;;;4.07;1.58;;;28.50;1.00;;;;;;5044411;28;20049;-88
2022/05/23 13:27:09;;;;;;;7.10;1.70;;;27.80;1.00;;;;;;5048346;28;20409;-87
2022/05/23 13:29:35;;;;;;;3.88;1.90;;;28.00;1.00;;;;;;5048057;28;20064;-87
2022/05/23 13:32:10;;;;;;;4.72;1.70;;;28.10;1.00;;;;;;5050561;28;20071;-88
2022/05/23 13:34:38;;;;;;;4.97;2.17;;;26.50;1.00;;;;;;5030468;28;20116;-87
2022/05/23 13:37:06;;;;;;;9.43;2.78;;;26.10;1.00;;;;;;5045533;28;20382;-87
2022/05/23 13:39:33;;;;;;;4.82;2.00;;;26.40;1.00;;;;;;5048541;28;20049;-88
2022/05/23 13:42:03;;;;;;;4.60;2.28;;;25.70;1.00;;;;;;5049189;28;20049;-88
2022/05/23 13:44:35;;;;;;;6.22;2.10;;;25.50;1.00;;;;;;5047373;28;20073;-87
2022/05/23 13:47:11;;;;;;;4.68;1.83;;;25.10;1.00;;;;;;5049027;28;20060;-87
2022/05/23 13:49:45;;;;;;;7.85;2.20;;;25.10;1.00;;;;;;5047167;28;20049;-87
2022/05/23 13:52:15;;;;;;;6.95;1.95;;;25.30;1.00;;;;;;5044114;28;20063;-88
2022/05/23 13:54:47;;;;;;;4.00;1.90;;;26.00;1.00;;;;;;5045320;28;20086;-87
2022/05/23 13:57:25;;;;;;;7.05;2.20;;;26.10;1.00;;;;;;5043050;28;20046;-88
2022/05/23 13:59:57;;;;;;;6.45;2.25;;;25.70;1.00;;;;;;5041170;28;20046;-88
2022/05/23 14:02:28;;;;;;;4.95;2.20;;;25.70;1.00;;;;;;5043487;28;20048;-88
2022/05/23 14:04:55;;;;;;;4.90;1.95;;;25.70;1.00;;;;;;5061937;28;20045;-88
2022/05/23 14:07:30;;;;;;;10.27;2.88;;;25.60;1.00;;;;;;5047415;28;20073;-88
2022/05/23 14:09:56;;;;;;;3.95;1.92;;;25.40;1.00;;;;;;5046588;28;20042;-88
2022/05/23 14:12:26;;;;;;;4.95;1.67;;;25.30;1.00;;;;;;5044610;28;20041;-87
2022/05/23 14:15:05;;;;;;;6.43;2.38;;;25.40;1.00;;;;;;5044751;28;20038;-88
2022/05/23 14:17:43;;;;;;;5.78;2.22;;;25.70;1.00;;;;;;5047432;28;20045;-88
2022/05/23 14:20:31;;;;;;;4.63;2.00;;;25.80;1.00;;;;;;5049408;28;20125;-88